Time;durP1;ratioP1;P1;durP2;ratioP2;P2;SDS_P1;SDS_P2;PMS_P1;PMS_P2;Temp;Humidity;BMP_temperature;BMP_pressure;BME280_temperature;BME280_humidity;BME280_pressure;Samples;Min_cycle;Max_cycle;Signal;HPM_P1;HPM_P2
2021/06/01 00:00:16;;;;;;;10.10;6.88;;;;;;;9.13;100.00;96602.66;4978564;28;20061;-66
2021/06/01 00:02:44;;;;;;;8.23;6.22;;;;;;;9.05;100.00;96605.94;4976504;28;20735;-66
2021/06/01 00:05:13;;;;;;;9.70;7.07;;;;;;;9.28;100.00;96602.16;4978065;28;20062;-67
2021/06/01 00:07:41;;;;;;;7.45;6.65;;;;;;;9.21;100.00;96592.28;4973490;28;20583;-67
2021/06/01 00:10:10;;;;;;;7.68;6.68;;;;;;;9.27;100.00;96597.03;4981067;28;21469;-67
2021/06/01 00:12:39;;;;;;;7.53;6.75;;;;;;;9.22;100.00;96599.22;4974895;28;20086;-66
2021/06/01 00:15:10;;;;;;;6.80;6.10;;;;;;;9.04;100.00;96596.38;4980219;28;20077;-66
2021/06/01 00:17:38;;;;;;;8.60;6.43;;;;;;;9.09;100.00;96593.38;4978546;28;20100;-67
2021/06/01 00:20:09;;;;;;;7.82;6.68;;;;;;;8.99;100.00;96596.78;4976324;28;20618;-66
2021/06/01 00:22:38;;;;;;;9.90;6.65;;;;;;;8.89;100.00;96595.06;4971693;28;20117;-67
2021/06/01 00:25:06;;;;;;;8.20;6.55;;;;;;;8.89;100.00;96601.16;4976580;28;20077;-67
2021/06/01 00:27:34;;;;;;;9.10;6.68;;;;;;;8.80;100.00;96605.38;4973958;28;20074;-67
2021/06/01 00:30:04;;;;;;;7.38;6.65;;;;;;;8.79;100.00;96601.09;4976765;28;20062;-67
2021/06/01 00:32:33;;;;;;;7.57;6.60;;;;;;;8.73;100.00;96598.16;4978034;28;20074;-68
2021/06/01 00:35:01;;;;;;;7.30;6.55;;;;;;;8.79;100.00;96598.47;4976098;28;20066;-70
2021/06/01 00:37:29;;;;;;;8.82;6.80;;;;;;;8.78;100.00;96588.94;4973733;28;20074;-67
2021/06/01 00:39:57;;;;;;;7.88;6.65;;;;;;;8.79;100.00;96595.84;4976468;28;20085;-67
2021/06/01 00:42:25;;;;;;;9.27;6.55;;;;;;;8.71;100.00;96589.59;4976063;28;20085;-67
2021/06/01 00:44:53;;;;;;;7.78;6.45;;;;;;;8.68;100.00;96592.47;4978267;28;20070;-67
2021/06/01 00:47:21;;;;;;;6.82;6.13;;;;;;;8.48;100.00;96589.72;4975654;28;20077;-66
2021/06/01 00:49:50;;;;;;;9.95;6.82;;;;;;;8.51;100.00;96597.34;4973307;28;20456;-67
2021/06/01 00:52:18;;;;;;;7.40;6.70;;;;;;;8.59;100.00;96593.22;4980970;28;20066;-67
2021/06/01 00:54:47;;;;;;;8.02;6.75;;;;;;;8.45;100.00;96600.47;4975894;28;20081;-66
2021/06/01 00:57:15;;;;;;;7.68;6.88;;;;;;;8.44;100.00;96603.25;4976000;28;20062;-66
2021/06/01 00:59:43;;;;;;;9.48;6.95;;;;;;;8.49;100.00;96598.41;4977946;28;20574;-67
2021/06/01 01:02:11;;;;;;;8.10;7.03;;;;;;;8.52;100.00;96598.16;4976798;28;20425;-66
2021/06/01 01:04:39;;;;;;;9.10;7.30;;;;;;;8.52;100.00;96601.63;4973427;28;20516;-66
2021/06/01 01:07:16;;;;;;;9.80;7.40;;;;;;;8.46;100.00;96596.03;4974417;28;20074;-66
2021/06/01 01:09:45;;;;;;;8.70;7.57;;;;;;;8.48;100.00;96594.13;4975872;28;20086;-67
2021/06/01 01:12:16;;;;;;;8.20;7.30;;;;;;;8.16;100.00;96592.38;4977217;28;20070;-66
2021/06/01 01:14:49;;;;;;;9.60;7.32;;;;;;;8.23;100.00;96590.88;4972000;28;20061;-65
2021/06/01 01:17:19;;;;;;;8.35;7.38;;;;;;;8.21;100.00;96586.72;4976263;28;20575;-66
2021/06/01 01:19:57;;;;;;;8.02;7.22;;;;;;;8.11;100.00;96586.63;4977496;28;20185;-66
2021/06/01 01:22:27;;;;;;;7.72;7.03;;;;;;;8.01;100.00;96583.94;4973984;28;20074;-66
2021/06/01 01:24:58;;;;;;;8.57;6.33;;;;;;;8.02;100.00;96582.16;4970817;28;20074;-67
2021/06/01 01:27:33;;;;;;;8.70;7.80;;;;;;;8.11;100.00;96578.75;4982294;28;20074;-66
2021/06/01 01:30:05;;;;;;;8.15;7.28;;;;;;;8.08;100.00;96573.75;4976266;28;20070;-66
2021/06/01 01:32:41;;;;;;;8.18;7.38;;;;;;;8.12;100.00;96575.19;4975733;28;20062;-66
2021/06/01 01:35:11;;;;;;;9.73;7.82;;;;;;;8.21;100.00;96577.03;4984271;28;20063;-66
2021/06/01 01:37:40;;;;;;;9.38;7.40;;;;;;;7.88;100.00;96571.94;4977032;28;20525;-66
2021/06/01 01:40:09;;;;;;;8.98;7.72;;;;;;;8.03;100.00;96574.16;4973339;28;20077;-67
2021/06/01 01:42:41;;;;;;;9.75;8.00;;;;;;;7.98;100.00;96576.31;4981386;28;20082;-66
2021/06/01 01:45:17;;;;;;;9.00;7.93;;;;;;;8.04;100.00;96569.72;4969206;28;20062;-66
2021/06/01 01:50:38;;;;;;;8.38;6.90;;;;;;;7.90;100.00;96572.66;4969133;28;20075;-67
2021/06/01 01:53:06;;;;;;;7.13;5.80;;;;;;;7.57;100.00;96577.03;4972915;28;20062;-67
2021/06/01 01:55:34;;;;;;;6.40;5.68;;;;;;;7.33;100.00;96574.59;4971210;28;20501;-67
2021/06/01 01:58:02;;;;;;;7.57;6.78;;;;;;;7.51;100.00;96581.00;4979408;28;20603;-66
2021/06/01 02:00:32;;;;;;;11.65;7.40;;;;;;;7.39;100.00;96576.72;4977089;28;20090;-66
2021/06/01 02:03:00;;;;;;;7.65;6.88;;;;;;;7.38;100.00;96583.75;4978585;28;20074;-67
2021/06/01 02:05:29;;;;;;;10.35;7.60;;;;;;;7.54;100.00;96577.31;4971450;28;20066;-67
2021/06/01 02:07:58;;;;;;;9.80;7.72;;;;;;;7.44;100.00;96585.06;4973524;28;20074;-67
2021/06/01 02:10:26;;;;;;;8.63;6.85;;;;;;;7.41;100.00;96576.59;4972660;28;20042;-66
2021/06/01 02:12:54;;;;;;;8.38;7.57;;;;;;;7.44;100.00;96577.19;4974224;28;20078;-66
2021/06/01 02:15:23;;;;;;;9.95;7.57;;;;;;;7.44;100.00;96576.38;4975220;28;20163;-67
2021/06/01 02:17:51;;;;;;;8.38;7.50;;;;;;;7.44;100.00;96574.56;4973905;28;20066;-66
2021/06/01 02:20:19;;;;;;;8.27;7.18;;;;;;;7.23;100.00;96573.66;4973656;28;20050;-66
2021/06/01 02:25:42;;;;;;;8.77;7.65;;;;;;;7.29;100.00;96571.34;4974569;28;20552;-66
2021/06/01 02:28:14;;;;;;;8.85;7.85;;;;;;;7.40;100.00;96567.03;4970157;28;20078;-67
2021/06/01 02:30:48;;;;;;;10.07;7.38;;;;;;;7.29;100.00;96567.91;4976291;28;20074;-66
2021/06/01 02:33:20;;;;;;;8.25;6.95;;;;;;;7.37;100.00;96562.91;4972776;28;20218;-67
2021/06/01 02:35:48;;;;;;;7.85;7.05;;;;;;;7.39;100.00;96563.59;4971013;28;20078;-67
2021/06/01 02:38:17;;;;;;;8.38;7.45;;;;;;;7.37;100.00;96558.47;4968990;28;20085;-67
2021/06/01 02:40:49;;;;;;;9.45;7.18;;;;;;;7.34;100.00;96560.53;4974945;28;20073;-67
2021/06/01 02:43:17;;;;;;;11.23;6.30;;;;;;;7.23;100.00;96557.94;4972266;28;20058;-67
2021/06/01 02:45:45;;;;;;;7.15;6.43;;;;;;;7.17;100.00;96566.28;4978536;28;20075;-66
2021/06/01 02:48:15;;;;;;;9.20;6.30;;;;;;;7.09;100.00;96564.25;4974068;28;20079;-66
2021/06/01 02:50:44;;;;;;;8.85;6.97;;;;;;;6.96;100.00;96566.16;4972052;28;20059;-67
2021/06/01 02:53:12;;;;;;;8.63;7.50;;;;;;;7.02;100.00;96569.16;4973541;28;20062;-66
2021/06/01 02:55:41;;;;;;;11.05;7.80;;;;;;;7.03;100.00;96564.72;4976251;28;20667;-67
2021/06/01 02:58:11;;;;;;;9.75;7.70;;;;;;;6.86;100.00;96558.19;4974521;28;20540;-66
2021/06/01 03:00:40;;;;;;;9.63;7.78;;;;;;;7.00;100.00;96568.41;4980492;28;20079;-66
2021/06/01 03:03:09;;;;;;;10.80;8.20;;;;;;;7.10;100.00;96566.75;4972062;28;20074;-67
2021/06/01 03:05:38;;;;;;;6.78;6.18;;;;;;;6.74;100.00;96573.03;4976578;28;20078;-67
2021/06/01 03:08:13;;;;;;;7.07;6.38;;;;;;;6.78;100.00;96569.25;4977828;28;20074;-67
2021/06/01 03:10:41;;;;;;;7.43;6.22;;;;;;;6.62;100.00;96561.72;4979474;28;20498;-66
2021/06/01 03:13:11;;;;;;;7.47;6.68;;;;;;;6.71;100.00;96564.59;4978606;28;20081;-66
2021/06/01 03:15:39;;;;;;;7.72;6.47;;;;;;;6.66;100.00;96565.78;4983677;28;20081;-67
2021/06/01 03:18:07;;;;;;;9.73;6.72;;;;;;;6.73;100.00;96563.53;4975356;28;20070;-66
2021/06/01 03:20:35;;;;;;;6.97;6.28;;;;;;;6.85;100.00;96567.00;4975052;28;20507;-66
2021/06/01 03:23:03;;;;;;;8.02;6.65;;;;;;;6.76;100.00;96568.53;4979728;28;20077;-67
2021/06/01 03:25:31;;;;;;;7.97;6.93;;;;;;;6.76;100.00;96562.47;4972262;28;20083;-66
2021/06/01 03:27:59;;;;;;;8.90;7.95;;;;;;;6.92;100.00;96564.72;4975650;28;20595;-67
2021/06/01 03:30:28;;;;;;;9.60;7.97;;;;;;;6.97;100.00;96570.44;4978636;28;20603;-66
2021/06/01 03:32:57;;;;;;;9.73;8.73;;;;;;;7.04;100.00;96571.63;4976854;28;20097;-66
2021/06/01 03:35:25;;;;;;;9.52;8.55;;;;;;;6.96;100.00;96574.88;4972945;28;20077;-66
2021/06/01 03:37:54;;;;;;;7.00;6.32;;;;;;;6.93;100.00;96569.03;4977055;28;20086;-67
2021/06/01 03:40:23;;;;;;;7.38;5.85;;;;;;;6.73;100.00;96571.38;4972852;28;20070;-67
2021/06/01 03:42:51;;;;;;;7.10;5.80;;;;;;;6.77;100.00;96566.75;4977758;28;20082;-66
2021/06/01 03:45:21;;;;;;;7.15;6.45;;;;;;;6.90;100.00;96570.91;4973725;28;20070;-67
2021/06/01 03:47:50;;;;;;;7.50;6.70;;;;;;;7.07;100.00;96566.97;4976975;28;20065;-66
2021/06/01 03:50:18;;;;;;;7.80;6.95;;;;;;;8.01;100.00;96559.47;4972956;28;20529;-65
2021/06/01 03:52:46;;;;;;;8.30;6.90;;;;;;;10.03;100.00;96539.38;4982884;28;20070;-66
2021/06/01 03:55:15;;;;;;;7.40;6.68;;;;;;;11.05;100.00;96536.94;4969341;28;20198;-67
2021/06/01 03:57:44;;;;;;;7.43;6.22;;;;;;;11.82;100.00;96524.25;4978297;28;20074;-67
2021/06/01 04:00:15;;;;;;;9.35;6.03;;;;;;;12.88;100.00;96533.03;4973107;28;20077;-66
2021/06/01 04:02:44;;;;;;;6.90;5.47;;;;;;;13.70;100.00;96520.13;4972567;28;20058;-67
2021/06/01 04:05:13;;;;;;;6.88;5.88;;;;;;;15.03;87.08;96526.88;4970977;28;20592;-67
2021/06/01 04:07:41;;;;;;;9.60;5.72;;;;;;;15.35;79.21;96530.44;4973637;28;20548;-66
2021/06/01 04:10:11;;;;;;;21.15;5.07;;;;;;;15.19;78.73;96526.00;4977600;28;20105;-66
2021/06/01 04:12:38;;;;;;;7.00;4.07;;;;;;;16.07;73.51;96523.09;4977432;28;20079;-66
2021/06/01 04:15:07;;;;;;;8.00;4.32;;;;;;;16.90;66.17;96525.88;4972452;28;20651;-66
2021/06/01 04:17:35;;;;;;;7.88;3.63;;;;;;;17.30;61.80;96521.91;4975547;28;20536;-66
2021/06/01 04:20:05;;;;;;;3.35;3.00;;;;;;;18.24;54.64;96520.16;4971147;28;20105;-66
2021/06/01 04:22:34;;;;;;;5.57;3.00;;;;;;;17.62;56.04;96531.38;4970354;28;20537;-67
2021/06/01 04:25:03;;;;;;;5.47;3.88;;;;;;;18.08;55.81;96523.06;4973479;28;20082;-67
2021/06/01 04:27:31;;;;;;;4.93;4.10;;;;;;;17.79;58.29;96530.16;4973455;28;20088;-67
2021/06/01 04:29:59;;;;;;;6.45;4.45;;;;;;;18.65;54.79;96530.16;4976619;28;20062;-66
2021/06/01 04:32:27;;;;;;;5.05;4.55;;;;;;;18.59;55.03;96522.91;4976776;28;20062;-66
2021/06/01 04:34:55;;;;;;;5.90;4.93;;;;;;;18.44;56.45;96536.34;4973484;28;20073;-67
2021/06/01 04:37:24;;;;;;;5.90;4.50;;;;;;;18.91;53.16;96534.06;4972090;28;20429;-67
2021/06/01 04:40:14;;;;;;;6.00;4.53;;;;;;;19.71;50.83;96526.50;4977464;28;20041;-67
2021/06/01 04:42:42;;;;;;;4.93;4.43;;;;;;;18.73;55.45;96532.72;4975902;28;20086;-66
2021/06/01 04:45:12;;;;;;;5.25;4.75;;;;;;;19.95;51.90;96523.28;4969666;28;20473;-67
2021/06/01 04:47:41;;;;;;;5.70;4.87;;;;;;;20.73;48.31;96533.50;4971204;28;20094;-67
2021/06/01 04:50:09;;;;;;;9.68;6.22;;;;;;;22.14;43.51;96517.59;4974089;28;22280;-66
2021/06/01 04:52:38;;;;;;;5.47;4.85;;;;;;;21.13;46.49;96528.09;4973961;28;20062;-67
2021/06/01 04:55:09;;;;;;;5.47;4.97;;;;;;;21.33;47.08;96526.19;4976177;28;20108;-67
2021/06/01 04:57:39;;;;;;;8.90;5.65;;;;;;;21.11;47.86;96525.63;4973484;28;20154;-67
2021/06/01 05:00:09;;;;;;;9.00;6.03;;;;;;;22.90;42.62;96524.72;4975920;28;20914;-68
2021/06/01 05:02:37;;;;;;;7.32;6.00;;;;;;;21.40;45.56;96540.44;4970512;28;20417;-67
2021/06/01 05:05:07;;;;;;;7.40;6.57;;;;;;;22.42;42.97;96529.84;4976562;28;20070;-67
2021/06/01 05:07:35;;;;;;;8.15;6.20;;;;;;;21.57;44.43;96532.75;4970732;28;20063;-67
2021/06/01 05:10:04;;;;;;;7.40;6.55;;;;;;;22.82;41.92;96529.56;4970774;28;20070;-68
2021/06/01 05:12:32;;;;;;;8.18;6.90;;;;;;;20.50;44.70;96544.59;4978217;28;20071;-67
2021/06/01 05:15:02;;;;;;;8.15;7.00;;;;;;;21.49;44.02;96541.03;4974954;28;20058;-67
2021/06/01 05:17:30;;;;;;;9.68;7.63;;;;;;;21.30;44.09;96537.34;4975313;28;20073;-68
2021/06/01 05:19:58;;;;;;;8.65;6.72;;;;;;;19.17;51.31;96552.13;4975504;28;20069;-67
2021/06/01 05:22:26;;;;;;;7.97;7.18;;;;;;;21.15;45.83;96537.59;4975191;28;20085;-67
2021/06/01 05:24:53;;;;;;;11.07;7.10;;;;;;;21.48;44.91;96534.84;4970322;28;20082;-68
2021/06/01 05:27:21;;;;;;;8.02;6.78;;;;;;;20.67;47.31;96527.09;4978762;28;20324;-67
2021/06/01 05:29:52;;;;;;;37.40;9.38;;;;;;;19.93;50.99;96533.38;4972986;28;20081;-66
2021/06/01 05:38:06;;;;;;;9.25;7.20;;;;;;;20.05;51.15;96531.75;4948503;28;20063;-62
2021/06/01 05:40:34;;;;;;;8.75;7.32;;;;;;;19.69;52.53;96537.41;4942323;28;20093;-62
2021/06/01 05:43:02;;;;;;;15.23;7.50;;;;;;;18.64;58.36;96533.81;4947437;28;20089;-58
2021/06/01 05:45:31;;;;;;;9.82;7.28;;;;;;;18.65;57.50;96530.16;4944065;28;20105;-55
2021/06/01 05:48:00;;;;;;;7.70;6.65;;;;;;;18.72;60.95;96531.06;4947818;28;20063;-59
2021/06/01 05:50:28;;;;;;;10.57;6.37;;;;;;;18.70;61.07;96526.91;4951754;28;20150;-57
2021/06/01 05:53:16;;;;;;;7.63;6.68;;;;;;;17.17;71.50;96535.91;4953725;28;20490;-58
2021/06/01 05:55:45;;;;;;;13.60;7.57;;;;;;;17.90;69.78;96523.50;4946796;28;20086;-56
2021/06/01 05:58:13;;;;;;;7.17;6.47;;;;;;;17.37;70.45;96533.50;4945329;28;20173;-59
2021/06/01 06:00:41;;;;;;;10.48;7.00;;;;;;;16.46;86.31;96543.41;4950428;28;20098;-58
2021/06/01 06:03:11;;;;;;;8.55;7.60;;;;;;;16.52;84.55;96541.88;4945092;28;20097;-56
2021/06/01 06:05:39;;;;;;;9.43;7.90;;;;;;;15.80;93.90;96539.56;4944309;28;20078;-54
2021/06/01 06:08:09;;;;;;;10.13;7.82;;;;;;;15.54;99.62;96540.63;4953838;28;20067;-57
2021/06/01 06:10:37;;;;;;;12.68;8.30;;;;;;;15.32;100.00;96544.91;4941107;28;20075;-58
2021/06/01 06:13:06;;;;;;;8.25;7.45;;;;;;;15.20;100.00;96546.25;4951490;28;20075;-55
2021/06/01 06:15:34;;;;;;;12.88;9.10;;;;;;;15.97;100.00;96532.31;4946712;28;20078;-58
2021/06/01 06:18:07;;;;;;;9.93;8.52;;;;;;;16.06;100.00;96534.72;4945946;28;20070;-58
2021/06/01 06:20:37;;;;;;;9.63;8.63;;;;;;;15.98;100.00;96536.59;4943917;28;20463;-58
2021/06/01 06:23:05;;;;;;;11.95;8.40;;;;;;;15.67;100.00;96537.44;4946082;28;20071;-58
2021/06/01 06:25:34;;;;;;;9.30;7.93;;;;;;;16.09;94.04;96533.53;4945874;28;20082;-57
2021/06/01 06:28:02;;;;;;;11.07;8.55;;;;;;;15.67;96.22;96534.78;4946444;28;20091;-55
2021/06/01 06:30:30;;;;;;;8.68;7.88;;;;;;;16.29;96.17;96534.72;4950979;28;20533;-58
2021/06/01 06:32:58;;;;;;;9.07;7.43;;;;;;;16.10;94.79;96535.19;4949881;28;20526;-54
2021/06/01 06:35:26;;;;;;;10.35;8.23;;;;;;;16.32;97.01;96542.34;4951210;28;20075;-55
2021/06/01 06:37:55;;;;;;;10.90;8.40;;;;;;;16.49;96.39;96542.22;4947598;28;20059;-60
2021/06/01 06:40:23;;;;;;;11.23;7.90;;;;;;;16.44;94.51;96541.91;4953057;28;20063;-57
2021/06/01 06:42:51;;;;;;;10.77;7.80;;;;;;;16.28;88.32;96540.22;4952804;28;20907;-56
2021/06/01 06:45:20;;;;;;;9.77;7.68;;;;;;;16.45;94.47;96541.75;4947712;28;21523;-55
2021/06/01 06:48:05;;;;;;;14.25;7.93;;;;;;;16.82;87.91;96535.59;4947646;28;20063;-57
2021/06/01 06:50:34;;;;;;;7.95;7.15;;;;;;;16.96;82.71;96528.63;4947933;28;20067;-54
2021/06/01 06:53:06;;;;;;;9.57;7.77;;;;;;;16.89;85.87;96532.19;4948484;28;20134;-54
2021/06/01 06:55:34;;;;;;;10.10;8.25;;;;;;;16.72;88.67;96528.84;4949334;28;20081;-49
2021/06/01 06:58:03;;;;;;;8.77;7.80;;;;;;;16.91;85.57;96530.19;4944835;28;20085;-57
2021/06/01 07:00:30;;;;;;;9.13;7.72;;;;;;;17.37;85.25;96525.50;4952260;28;20063;-57
2021/06/01 07:02:58;;;;;;;8.93;7.25;;;;;;;17.03;84.09;96536.72;4946887;28;20093;-54
2021/06/01 07:05:26;;;;;;;10.15;7.70;;;;;;;16.95;85.15;96531.47;4949737;28;20086;-58
2021/06/01 07:07:55;;;;;;;12.93;8.25;;;;;;;17.40;85.16;96524.31;4948724;28;20517;-54
2021/06/01 07:10:25;;;;;;;7.80;6.93;;;;;;;17.54;78.08;96526.94;4949445;28;20075;-54
2021/06/01 07:12:54;;;;;;;7.90;6.88;;;;;;;17.27;76.82;96527.63;4951775;28;20063;-56
2021/06/01 07:15:36;;;;;;;9.48;7.28;;;;;;;17.22;78.82;96530.84;4949111;28;20446;-56
2021/06/01 07:18:05;;;;;;;8.70;6.80;;;;;;;17.65;76.53;96519.47;4947630;28;20071;-59
2021/06/01 07:20:33;;;;;;;7.95;6.80;;;;;;;18.06;72.66;96522.41;4951055;28;20066;-56
2021/06/01 07:23:02;;;;;;;8.20;7.10;;;;;;;18.01;71.27;96522.16;4946405;28;20090;-56
2021/06/01 07:25:32;;;;;;;8.18;6.07;;;;;;;18.04;65.67;96519.13;4934372;28;20130;-58
2021/06/01 07:28:01;;;;;;;8.88;5.35;;;;;;;17.92;65.70;96520.63;4929947;28;20129;-57
2021/06/01 07:30:29;;;;;;;6.90;5.40;;;;;;;18.00;61.24;96523.19;4949899;28;20091;-57
2021/06/01 07:32:58;;;;;;;9.27;6.55;;;;;;;18.18;61.33;96528.91;4952557;28;20058;-59
2021/06/01 07:35:27;;;;;;;7.40;5.18;;;;;;;18.26;58.81;96523.44;4945871;28;20063;-59
2021/06/01 07:37:55;;;;;;;7.03;4.82;;;;;;;18.03;59.16;96520.13;4954152;28;20466;-59
2021/06/01 07:40:24;;;;;;;5.90;4.85;;;;;;;18.61;59.73;96517.38;4947220;28;20062;-59
2021/06/01 07:42:54;;;;;;;6.07;5.47;;;;;;;18.56;60.61;96523.28;4930648;28;20171;-59
2021/06/01 07:45:24;;;;;;;6.13;4.78;;;;;;;18.59;54.47;96522.91;4945905;28;21378;-59
2021/06/01 07:47:51;;;;;;;6.57;4.80;;;;;;;18.53;53.34;96521.00;4949956;28;20082;-58
2021/06/01 07:50:19;;;;;;;6.00;4.65;;;;;;;19.15;55.18;96519.41;4944812;28;20098;-58
2021/06/01 07:52:47;;;;;;;5.90;4.80;;;;;;;19.19;55.15;96518.00;4953028;28;20059;-60
2021/06/01 07:55:16;;;;;;;5.97;4.38;;;;;;;18.82;53.42;96513.84;4948787;28;20066;-58
2021/06/01 07:57:44;;;;;;;7.10;4.68;;;;;;;18.66;52.12;96510.44;4954105;28;20091;-59
2021/06/01 08:00:15;;;;;;;6.22;4.70;;;;;;;18.82;50.34;96505.84;4949119;28;20071;-59
2021/06/01 08:02:43;;;;;;;5.07;4.20;;;;;;;19.09;51.50;96509.50;4949736;28;20474;-59
2021/06/01 08:05:15;;;;;;;6.15;4.43;;;;;;;19.10;49.78;96512.00;4948314;28;20066;-57
2021/06/01 08:07:43;;;;;;;5.57;4.13;;;;;;;18.93;47.47;96502.66;4951844;28;20073;-59
2021/06/01 08:10:11;;;;;;;11.52;4.65;;;;;;;18.85;48.92;96508.13;4947865;28;20521;-59
2021/06/01 08:12:39;;;;;;;5.05;4.20;;;;;;;19.33;49.10;96508.19;4953797;28;20093;-60
2021/06/01 08:15:08;;;;;;;5.50;4.20;;;;;;;19.17;49.18;96504.84;4947667;28;20062;-57
2021/06/01 08:17:38;;;;;;;5.28;4.13;;;;;;;19.50;48.82;96504.16;4949372;28;20078;-58
2021/06/01 08:20:13;;;;;;;38.80;4.68;;;;;;;18.94;45.55;96497.09;4949536;28;20063;-60
2021/06/01 08:22:42;;;;;;;4.90;4.03;;;;;;;18.87;45.35;96509.59;4948942;28;20071;-60
2021/06/01 08:25:11;;;;;;;5.53;3.97;;;;;;;19.14;44.69;96510.56;4944166;28;20067;-56
2021/06/01 08:27:39;;;;;;;5.82;3.67;;;;;;;19.61;45.23;96505.44;4953089;28;20458;-59
2021/06/01 08:30:08;;;;;;;5.15;3.67;;;;;;;19.74;42.48;96496.66;4948959;28;20063;-58
2021/06/01 08:32:38;;;;;;;5.55;3.55;;;;;;;19.45;43.48;96501.28;4943298;28;20102;-59
2021/06/01 08:35:07;;;;;;;4.05;3.30;;;;;;;18.74;42.65;96494.28;4950961;28;20078;-60
2021/06/01 08:37:35;;;;;;;5.43;3.50;;;;;;;19.45;42.38;96502.09;4946767;28;20047;-60
2021/06/01 08:40:04;;;;;;;4.85;3.00;;;;;;;19.09;41.16;96506.84;4949555;28;20086;-60
2021/06/01 08:42:34;;;;;;;6.07;2.85;;;;;;;18.88;40.62;96495.19;4950133;28;20087;-57
2021/06/01 08:45:06;;;;;;;5.43;3.20;;;;;;;18.92;42.97;96492.94;4949986;28;20070;-60
2021/06/01 08:47:34;;;;;;;5.30;3.60;;;;;;;19.65;41.65;96491.50;4947127;28;20101;-58
2021/06/01 08:50:06;;;;;;;4.78;3.15;;;;;;;19.28;40.41;96494.59;4948873;28;20066;-55
2021/06/01 08:52:35;;;;;;;3.63;3.00;;;;;;;19.47;39.62;96501.06;4944004;28;20078;-59
2021/06/01 08:55:04;;;;;;;3.88;3.38;;;;;;;19.97;39.93;96496.31;4953173;28;20504;-60
2021/06/01 08:57:34;;;;;;;5.00;3.45;;;;;;;19.81;40.16;96495.66;4948509;28;20083;-60
2021/06/01 09:00:02;;;;;;;5.10;3.25;;;;;;;19.67;40.32;96483.25;4945584;28;20569;-60
2021/06/01 09:02:30;;;;;;;4.75;3.70;;;;;;;19.73;40.88;96489.69;4948481;28;20070;-60
2021/06/01 09:05:02;;;;;;;4.30;3.60;;;;;;;19.95;40.27;96488.47;4952256;28;20096;-59
2021/06/01 09:07:39;;;;;;;40.70;6.10;;;;;;;19.91;37.86;96495.28;4946535;28;20067;-59
2021/06/01 09:10:22;;;;;;;5.05;3.42;;;;;;;20.13;37.69;96487.88;4947982;28;20078;-56
2021/06/01 09:21:45;;;;;;;6.53;3.80;;;;;;;20.30;38.88;96489.16;4949696;28;21483;-60
2021/06/01 09:24:15;;;;;;;4.32;3.58;;;;;;;20.41;39.80;96486.91;4945119;28;20043;-60
2021/06/01 09:26:59;;;;;;;5.97;4.20;;;;;;;20.29;41.50;96490.19;4945845;28;20558;-59
2021/06/01 09:29:28;;;;;;;4.40;3.90;;;;;;;19.64;41.22;96479.13;4944876;28;20076;-60
2021/06/01 09:32:10;;;;;;;5.85;3.85;;;;;;;20.26;40.56;96492.44;4949674;28;20059;-60
2021/06/01 09:34:41;;;;;;;5.88;4.18;;;;;;;20.26;40.48;96477.19;4945108;28;20039;-58
2021/06/01 09:37:20;;;;;;;5.15;3.85;;;;;;;20.28;39.00;96475.16;4949337;28;20466;-60
2021/06/01 09:40:20;;;;;;;5.78;3.55;;;;;;;20.20;39.67;96467.31;4948825;28;20067;-57
2021/06/01 09:42:49;;;;;;;6.45;3.67;;;;;;;20.62;41.23;96470.66;4947028;28;20436;-58
2021/06/01 09:45:19;;;;;;;4.18;3.50;;;;;;;20.25;40.41;96469.38;4943770;28;20070;-60
2021/06/01 09:47:52;;;;;;;3.97;3.27;;;;;;;20.24;39.74;96473.91;4949914;28;20085;-61
2021/06/01 09:50:29;;;;;;;8.85;3.95;;;;;;;19.86;39.44;96461.09;4946754;28;20070;-61
2021/06/01 09:53:00;;;;;;;5.70;3.78;;;;;;;20.34;38.89;96473.50;4949070;28;20070;-58
2021/06/01 09:55:34;;;;;;;5.93;3.85;;;;;;;20.10;39.56;96461.56;4947095;28;20109;-57
2021/06/01 09:58:04;;;;;;;12.75;4.47;;;;;;;19.96;39.89;96465.22;4947746;28;20082;-61
2021/06/01 10:00:33;;;;;;;;;;;;;;;20.18;38.58;96460.53;4944148;28;20090;-60
2021/06/01 10:03:02;;;;;;;5.97;3.75;;;;;;;19.85;39.68;96463.97;4951292;28;19958;-60
2021/06/01 10:05:31;;;;;;;5.20;3.78;;;;;;;20.35;38.90;96462.59;4941502;28;20078;-58
2021/06/01 10:08:00;;;;;;;7.15;4.30;;;;;;;20.28;38.31;96452.91;4951778;28;20067;-60
2021/06/01 10:10:31;;;;;;;6.07;4.50;;;;;;;20.06;39.38;96458.47;4952517;28;20063;-60
2021/06/01 10:13:01;;;;;;;4.20;3.75;;;;;;;20.09;39.75;96446.50;4951290;28;20090;-60
2021/06/01 10:15:30;;;;;;;4.82;3.80;;;;;;;20.12;40.82;96448.75;4953801;28;20091;-61
2021/06/01 10:18:02;;;;;;;5.40;3.80;;;;;;;20.38;39.17;96451.47;4952156;28;20074;-58
2021/06/01 10:20:32;;;;;;;4.77;3.73;;;;;;;20.54;37.75;96452.09;4893953;28;20087;-61
2021/06/01 10:23:01;;;;;;;5.50;4.35;;;;;;;20.33;38.44;96448.56;4953843;28;20069;-61
2021/06/01 10:25:31;;;;;;;7.22;4.40;;;;;;;20.61;39.38;96451.06;4949378;28;20066;-61
2021/06/01 10:28:01;;;;;;;6.13;4.10;;;;;;;20.66;38.81;96449.63;4955147;28;20094;-61
2021/06/01 10:30:30;;;;;;;5.50;4.47;;;;;;;20.76;39.26;96444.66;4953806;28;20082;-60
2021/06/01 10:33:00;;;;;;;7.65;4.70;;;;;;;20.69;39.50;96447.34;4948801;28;20063;-58
2021/06/01 10:35:32;;;;;;;4.65;3.97;;;;;;;21.00;38.55;96438.63;4948793;28;20081;-61
2021/06/01 10:52:33;;;;;;;4.97;4.25;;;;;;;20.71;38.00;96431.03;4949781;28;20526;-60
2021/06/01 10:55:08;;;;;;;6.10;4.25;;;;;;;20.85;38.72;96421.94;4947434;28;20547;-61
2021/06/01 10:57:59;;;;;;;6.68;4.25;;;;;;;20.74;40.66;96420.72;4954220;28;20085;-57
2021/06/01 11:03:18;;;;;;;6.05;4.22;;;;;;;21.60;38.28;96406.19;4947550;28;20548;-60
2021/06/01 11:06:09;;;;;;;5.68;4.30;;;;;;;21.53;39.38;96414.28;4950255;28;20081;-61
2021/06/01 11:08:42;;;;;;;7.05;4.07;;;;;;;21.50;40.42;96400.47;4950110;28;20054;-61
2021/06/01 11:11:33;;;;;;;4.97;4.00;;;;;;;21.19;38.86;96414.63;4948865;28;20055;-61
2021/06/01 11:14:27;;;;;;;5.75;4.28;;;;;;;21.24;38.56;96415.63;4948719;28;20054;-61
2021/06/01 11:16:56;;;;;;;5.18;4.43;;;;;;;21.42;38.91;96406.09;4946757;28;20572;-61
2021/06/01 11:19:28;;;;;;;9.90;5.00;;;;;;;21.69;40.10;96398.72;4953113;28;20123;-59
2021/06/01 11:22:03;;;;;;;5.57;4.60;;;;;;;21.40;41.08;96398.25;4948029;28;20082;-58
2021/06/01 11:33:45;;;;;;;9.57;4.40;;;;;;;21.35;40.43;96387.34;4948125;28;20085;-60
2021/06/01 11:36:16;;;;;;;5.00;3.95;;;;;;;21.19;38.58;96375.22;4970926;23;20741;-60
2021/06/01 11:38:48;;;;;;;6.38;4.10;;;;;;;21.50;40.26;96369.09;4961550;28;20066;-59
2021/06/01 11:42:47;;;;;;;5.60;4.30;;;;;;;21.26;39.50;96383.22;4966060;28;20071;-62
2021/06/01 11:44:19;;;;;;;4.57;3.88;;;;;;;21.82;38.88;96374.47;4968346;28;20074;-62
2021/06/01 11:46:52;;;;;;;6.00;4.63;;;;;;;21.78;38.39;96379.47;4960452;28;20078;-62
2021/06/01 11:52:08;;;;;;;7.60;4.25;;;;;;;21.82;39.28;96363.75;4951976;28;20075;-63
2021/06/01 11:54:37;;;;;;;8.68;4.40;;;;;;;21.61;38.18;96364.06;4946017;28;20109;-63
2021/06/01 11:57:11;;;;;;;5.80;4.50;;;;;;;22.22;38.61;96372.31;4944901;28;20544;-64
2021/06/01 12:05:27;;;;;;;5.85;5.13;;;;;;;22.46;38.30;96359.06;4944267;28;20542;-63
2021/06/01 12:13:45;;;;;;;8.75;4.03;;;;;;;22.10;40.13;96349.06;4949532;28;20073;-63
2021/06/01 12:19:04;;;;;;;6.70;4.88;;;;;;;22.40;38.70;96350.06;4944534;28;20071;-63
2021/06/01 12:21:34;;;;;;;6.57;4.43;;;;;;;22.14;37.97;96339.53;4944847;28;20070;-63
2021/06/01 12:24:04;;;;;;;;;;;;;;;22.25;39.02;96333.44;4933129;28;20035;-63
2021/06/01 12:26:42;;;;;;;4.70;4.20;;;;;;;22.07;40.00;96339.56;4924768;28;19962;-63
2021/06/01 12:32:06;;;;;;;5.03;3.78;;;;;;;22.60;37.74;96330.19;4940108;28;20488;-64
2021/06/01 12:34:49;;;;;;;5.43;3.63;;;;;;;22.52;39.37;96326.75;4945736;28;20078;-63
2021/06/01 13:06:46;;;;;;;5.18;3.75;;;;;;;23.15;36.63;96303.28;4927366;28;20063;-63
2021/06/01 13:12:33;;;;;;;5.10;2.92;;;;;;;22.54;37.61;96298.84;4942469;28;20074;-62
2021/06/01 13:21:01;;;;;;;3.40;2.60;;;;;;;22.57;34.68;96293.00;4940260;28;20082;-64
2021/06/01 13:30:23;;;;;;;3.78;2.40;;;;;;;22.83;35.54;96286.50;4946272;28;20059;-63
2021/06/01 13:38:47;;;;;;;4.47;2.80;;;;;;;23.01;35.57;96289.19;4942846;28;20074;-63
2021/06/01 13:46:52;;;;;;;4.63;2.83;;;;;;;22.94;34.36;96277.69;4948297;28;20541;-62
2021/06/01 13:49:23;;;;;;;2.50;2.22;;;;;;;23.16;34.09;96278.03;4942210;28;20067;-62